sensor_id;sensor_type;location;lat;lon;timestamp;temperature;humidity
66102;HTU21D;52883;51.094;5.880;2022-07-04T00:00:08;11.91;118.99
66102;HTU21D;52883;51.094;5.880;2022-07-04T00:02:35;11.89;118.99
66102;HTU21D;52883;51.094;5.880;2022-07-04T00:05:00;11.85;118.99
66102;HTU21D;52883;51.094;5.880;2022-07-04T00:07:26;11.77;118.99
66102;HTU21D;52883;51.094;5.880;2022-07-04T00:09:52;11.64;118.99
66102;HTU21D;52883;51.094;5.880;2022-07-04T00:12:18;11.58;118.99
66102;HTU21D;52883;51.094;5.880;2022-07-04T00:14:43;11.48;118.99
66102;HTU21D;52883;51.094;5.880;2022-07-04T00:17:09;11.40;118.99
66102;HTU21D;52883;51.094;5.880;2022-07-04T00:19:35;11.34;118.99
66102;HTU21D;52883;51.094;5.880;2022-07-04T00:22:00;11.30;118.99
66102;HTU21D;52883;51.094;5.880;2022-07-04T00:24:26;11.30;118.99
66102;HTU21D;52883;51.094;5.880;2022-07-04T00:26:52;11.33;118.99
66102;HTU21D;52883;51.094;5.880;2022-07-04T00:29:17;11.37;118.99
66102;HTU21D;52883;51.094;5.880;2022-07-04T00:31:43;11.40;118.99
66102;HTU21D;52883;51.094;5.880;2022-07-04T00:34:09;11.41;118.99
66102;HTU21D;52883;51.094;5.880;2022-07-04T00:36:35;11.45;118.99
66102;HTU21D;52883;51.094;5.880;2022-07-04T00:39:00;11.48;118.99
66102;HTU21D;52883;51.094;5.880;2022-07-04T00:41:26;11.54;118.99
66102;HTU21D;52883;51.094;5.880;2022-07-04T00:44:05;11.58;118.99
66102;HTU21D;52883;51.094;5.880;2022-07-04T00:46:32;11.61;118.99
66102;HTU21D;52883;51.094;5.880;2022-07-04T00:48:58;11.61;118.99
66102;HTU21D;52883;51.094;5.880;2022-07-04T00:51:25;11.60;118.99
66102;HTU21D;52883;51.094;5.880;2022-07-04T00:53:55;11.61;118.99
66102;HTU21D;52883;51.094;5.880;2022-07-04T00:56:22;11.60;118.99
66102;HTU21D;52883;51.094;5.880;2022-07-04T00:58:47;11.57;118.99
66102;HTU21D;52883;51.094;5.880;2022-07-04T01:01:14;11.53;118.99
66102;HTU21D;52883;51.094;5.880;2022-07-04T01:03:40;11.41;118.99
66102;HTU21D;52883;51.094;5.880;2022-07-04T01:06:07;11.27;118.99
66102;HTU21D;52883;51.094;5.880;2022-07-04T01:08:37;11.07;118.99
66102;HTU21D;52883;51.094;5.880;2022-07-04T01:11:05;10.97;118.99
66102;HTU21D;52883;51.094;5.880;2022-07-04T01:13:31;10.89;118.99
66102;HTU21D;52883;51.094;5.880;2022-07-04T01:15:56;10.81;118.99
66102;HTU21D;52883;51.094;5.880;2022-07-04T01:18:22;10.75;118.99
66102;HTU21D;52883;51.094;5.880;2022-07-04T01:20:48;10.72;118.99
66102;HTU21D;52883;51.094;5.880;2022-07-04T01:23:14;10.79;118.99
66102;HTU21D;52883;51.094;5.880;2022-07-04T01:25:39;10.84;118.99
66102;HTU21D;52883;51.094;5.880;2022-07-04T01:28:05;10.88;118.99
66102;HTU21D;52883;51.094;5.880;2022-07-04T01:30:33;10.90;118.99
66102;HTU21D;52883;51.094;5.880;2022-07-04T01:32:59;10.90;118.99
66102;HTU21D;52883;51.094;5.880;2022-07-04T01:35:25;10.95;118.99
66102;HTU21D;52883;51.094;5.880;2022-07-04T01:37:51;11.01;118.99
66102;HTU21D;52883;51.094;5.880;2022-07-04T01:40:17;11.00;118.99
66102;HTU21D;52883;51.094;5.880;2022-07-04T01:42:43;10.90;118.99
66102;HTU21D;52883;51.094;5.880;2022-07-04T01:45:10;10.80;118.99
66102;HTU21D;52883;51.094;5.880;2022-07-04T01:47:36;10.66;118.99
66102;HTU21D;52883;51.094;5.880;2022-07-04T01:50:04;10.64;118.99
66102;HTU21D;52883;51.094;5.880;2022-07-04T01:52:30;10.66;118.99
66102;HTU21D;52883;51.094;5.880;2022-07-04T01:54:56;10.62;118.99
66102;HTU21D;52883;51.094;5.880;2022-07-04T01:57:21;10.54;118.99
66102;HTU21D;52883;51.094;5.880;2022-07-04T01:59:47;10.45;118.99
66102;HTU21D;52883;51.094;5.880;2022-07-04T02:02:35;10.37;118.99
66102;HTU21D;52883;51.094;5.880;2022-07-04T02:05:01;10.34;118.99
66102;HTU21D;52883;51.094;5.880;2022-07-04T02:07:26;10.39;118.99
66102;HTU21D;52883;51.094;5.880;2022-07-04T02:09:52;10.38;118.99
66102;HTU21D;52883;51.094;5.880;2022-07-04T02:12:18;10.33;118.99
66102;HTU21D;52883;51.094;5.880;2022-07-04T02:15:03;10.25;118.99
66102;HTU21D;52883;51.094;5.880;2022-07-04T02:17:29;10.21;118.99
66102;HTU21D;52883;51.094;5.880;2022-07-04T02:19:54;10.21;118.99
66102;HTU21D;52883;51.094;5.880;2022-07-04T02:22:20;10.26;118.99
66102;HTU21D;52883;51.094;5.880;2022-07-04T02:24:46;10.30;118.99
66102;HTU21D;52883;51.094;5.880;2022-07-04T02:27:11;10.37;118.99
66102;HTU21D;52883;51.094;5.880;2022-07-04T02:29:37;10.38;118.99
66102;HTU21D;52883;51.094;5.880;2022-07-04T02:32:03;10.31;118.99
66102;HTU21D;52883;51.094;5.880;2022-07-04T02:34:29;10.28;118.99
66102;HTU21D;52883;51.094;5.880;2022-07-04T02:36:55;10.30;118.99
66102;HTU21D;52883;51.094;5.880;2022-07-04T02:39:20;10.24;118.99
66102;HTU21D;52883;51.094;5.880;2022-07-04T02:41:47;10.30;118.99
66102;HTU21D;52883;51.094;5.880;2022-07-04T02:44:12;10.33;118.99
66102;HTU21D;52883;51.094;5.880;2022-07-04T02:46:38;10.36;118.99
66102;HTU21D;52883;51.094;5.880;2022-07-04T02:49:04;10.36;118.99
66102;HTU21D;52883;51.094;5.880;2022-07-04T02:51:30;10.30;118.99
66102;HTU21D;52883;51.094;5.880;2022-07-04T02:53:56;10.31;118.99
66102;HTU21D;52883;51.094;5.880;2022-07-04T02:56:22;10.38;118.99
66102;HTU21D;52883;51.094;5.880;2022-07-04T02:58:48;10.30;118.99
66102;HTU21D;52883;51.094;5.880;2022-07-04T03:01:14;10.18;118.99
66102;HTU21D;52883;51.094;5.880;2022-07-04T03:03:40;10.04;118.99
66102;HTU21D;52883;51.094;5.880;2022-07-04T03:06:07;9.94;118.99
66102;HTU21D;52883;51.094;5.880;2022-07-04T03:08:33;9.95;118.99
66102;HTU21D;52883;51.094;5.880;2022-07-04T03:10:59;9.95;118.99
66102;HTU21D;52883;51.094;5.880;2022-07-04T03:13:24;9.94;118.99
66102;HTU21D;52883;51.094;5.880;2022-07-04T03:15:50;10.06;118.99
66102;HTU21D;52883;51.094;5.880;2022-07-04T03:18:16;10.09;118.99
66102;HTU21D;52883;51.094;5.880;2022-07-04T03:20:41;10.15;118.99
66102;HTU21D;52883;51.094;5.880;2022-07-04T03:23:07;10.20;118.99
66102;HTU21D;52883;51.094;5.880;2022-07-04T03:25:32;10.19;118.99
66102;HTU21D;52883;51.094;5.880;2022-07-04T03:27:58;10.19;118.99
66102;HTU21D;52883;51.094;5.880;2022-07-04T03:30:24;10.27;118.99
66102;HTU21D;52883;51.094;5.880;2022-07-04T03:32:50;10.27;118.99
66102;HTU21D;52883;51.094;5.880;2022-07-04T03:35:15;10.24;118.99
66102;HTU21D;52883;51.094;5.880;2022-07-04T03:37:41;10.20;118.99
66102;HTU21D;52883;51.094;5.880;2022-07-04T03:40:07;10.27;118.99
66102;HTU21D;52883;51.094;5.880;2022-07-04T03:42:33;10.24;118.99
66102;HTU21D;52883;51.094;5.880;2022-07-04T03:44:59;10.23;118.99
66102;HTU21D;52883;51.094;5.880;2022-07-04T03:47:24;10.22;118.99
66102;HTU21D;52883;51.094;5.880;2022-07-04T03:49:50;10.19;118.99
66102;HTU21D;52883;51.094;5.880;2022-07-04T03:52:15;10.15;118.99
66102;HTU21D;52883;51.094;5.880;2022-07-04T03:54:41;10.15;118.99
66102;HTU21D;52883;51.094;5.880;2022-07-04T03:57:07;10.12;118.99
66102;HTU21D;52883;51.094;5.880;2022-07-04T03:59:32;10.10;118.99
66102;HTU21D;52883;51.094;5.880;2022-07-04T04:01:58;10.14;118.99
66102;HTU21D;52883;51.094;5.880;2022-07-04T04:04:24;10.21;118.99
66102;HTU21D;52883;51.094;5.880;2022-07-04T04:07:09;10.27;118.99
66102;HTU21D;52883;51.094;5.880;2022-07-04T04:09:34;10.38;118.99
66102;HTU21D;52883;51.094;5.880;2022-07-04T04:12:00;10.50;118.99
66102;HTU21D;52883;51.094;5.880;2022-07-04T04:14:26;10.63;118.99
66102;HTU21D;52883;51.094;5.880;2022-07-04T04:16:53;10.74;118.99
66102;HTU21D;52883;51.094;5.880;2022-07-04T04:19:19;10.85;118.99
66102;HTU21D;52883;51.094;5.880;2022-07-04T04:21:45;10.97;118.99
66102;HTU21D;52883;51.094;5.880;2022-07-04T04:24:10;11.09;118.99
66102;HTU21D;52883;51.094;5.880;2022-07-04T04:26:36;11.15;118.99
66102;HTU21D;52883;51.094;5.880;2022-07-04T04:29:02;11.23;118.99
66102;HTU21D;52883;51.094;5.880;2022-07-04T04:31:28;11.52;118.99
66102;HTU21D;52883;51.094;5.880;2022-07-04T04:33:53;12.82;118.99
66102;HTU21D;52883;51.094;5.880;2022-07-04T04:36:19;14.43;118.99
66102;HTU21D;52883;51.094;5.880;2022-07-04T04:38:44;15.84;118.99
66102;HTU21D;52883;51.094;5.880;2022-07-04T04:41:10;16.90;118.99
66102;HTU21D;52883;51.094;5.880;2022-07-04T04:43:36;17.89;118.99
66102;HTU21D;52883;51.094;5.880;2022-07-04T04:46:02;18.81;118.99
66102;HTU21D;52883;51.094;5.880;2022-07-04T04:48:27;19.56;118.96
66102;HTU21D;52883;51.094;5.880;2022-07-04T04:50:53;20.24;116.58
66102;HTU21D;52883;51.094;5.880;2022-07-04T04:53:19;20.91;113.86
66102;HTU21D;52883;51.094;5.880;2022-07-04T04:55:48;21.49;111.27
66102;HTU21D;52883;51.094;5.880;2022-07-04T04:58:13;21.90;109.15
66102;HTU21D;52883;51.094;5.880;2022-07-04T05:00:39;22.16;108.64
66102;HTU21D;52883;51.094;5.880;2022-07-04T05:03:04;22.66;106.57
66102;HTU21D;52883;51.094;5.880;2022-07-04T05:05:30;23.03;105.75
66102;HTU21D;52883;51.094;5.880;2022-07-04T05:07:55;23.61;103.56
66102;HTU21D;52883;51.094;5.880;2022-07-04T05:10:21;24.04;102.11
66102;HTU21D;52883;51.094;5.880;2022-07-04T05:12:47;24.21;101.23
66102;HTU21D;52883;51.094;5.880;2022-07-04T05:15:12;24.53;99.58
66102;HTU21D;52883;51.094;5.880;2022-07-04T05:17:38;24.94;98.33
66102;HTU21D;52883;51.094;5.880;2022-07-04T05:20:04;25.35;97.14
66102;HTU21D;52883;51.094;5.880;2022-07-04T05:22:29;25.42;96.98
66102;HTU21D;52883;51.094;5.880;2022-07-04T05:24:55;25.51;97.16
66102;HTU21D;52883;51.094;5.880;2022-07-04T05:27:21;25.76;96.25
66102;HTU21D;52883;51.094;5.880;2022-07-04T05:29:46;26.12;94.29
66102;HTU21D;52883;51.094;5.880;2022-07-04T05:32:12;26.45;93.96
66102;HTU21D;52883;51.094;5.880;2022-07-04T05:34:37;26.70;92.97
66102;HTU21D;52883;51.094;5.880;2022-07-04T05:37:04;27.11;91.93
66102;HTU21D;52883;51.094;5.880;2022-07-04T05:39:29;27.55;90.21
66102;HTU21D;52883;51.094;5.880;2022-07-04T05:41:55;27.70;88.70
66102;HTU21D;52883;51.094;5.880;2022-07-04T05:44:21;27.75;88.54
66102;HTU21D;52883;51.094;5.880;2022-07-04T05:46:46;27.86;87.23
66102;HTU21D;52883;51.094;5.880;2022-07-04T05:49:12;27.93;86.17
66102;HTU21D;52883;51.094;5.880;2022-07-04T05:51:38;28.18;85.80
66102;HTU21D;52883;51.094;5.880;2022-07-04T05:54:03;28.44;84.45
66102;HTU21D;52883;51.094;5.880;2022-07-04T05:56:29;28.67;84.03
66102;HTU21D;52883;51.094;5.880;2022-07-04T05:58:56;28.83;83.65
66102;HTU21D;52883;51.094;5.880;2022-07-04T06:01:22;29.16;82.51
66102;HTU21D;52883;51.094;5.880;2022-07-04T06:03:48;29.39;80.88
66102;HTU21D;52883;51.094;5.880;2022-07-04T06:06:14;29.78;79.16
66102;HTU21D;52883;51.094;5.880;2022-07-04T06:08:41;30.18;76.56
66102;HTU21D;52883;51.094;5.880;2022-07-04T06:11:07;30.47;75.18
66102;HTU21D;52883;51.094;5.880;2022-07-04T06:13:32;30.65;75.07
66102;HTU21D;52883;51.094;5.880;2022-07-04T06:15:58;30.86;74.45
66102;HTU21D;52883;51.094;5.880;2022-07-04T06:18:23;31.04;74.57
66102;HTU21D;52883;51.094;5.880;2022-07-04T06:20:49;31.40;72.06
66102;HTU21D;52883;51.094;5.880;2022-07-04T06:23:15;31.66;69.91
66102;HTU21D;52883;51.094;5.880;2022-07-04T06:25:41;31.69;69.68
66102;HTU21D;52883;51.094;5.880;2022-07-04T06:28:06;31.81;68.77
66102;HTU21D;52883;51.094;5.880;2022-07-04T06:30:32;31.73;69.20
66102;HTU21D;52883;51.094;5.880;2022-07-04T06:32:58;31.74;69.58
66102;HTU21D;52883;51.094;5.880;2022-07-04T06:35:28;32.02;67.07
66102;HTU21D;52883;51.094;5.880;2022-07-04T06:38:15;32.30;65.36
66102;HTU21D;52883;51.094;5.880;2022-07-04T06:40:42;32.30;67.97
66102;HTU21D;52883;51.094;5.880;2022-07-04T06:43:08;32.54;65.59
66102;HTU21D;52883;51.094;5.880;2022-07-04T06:45:34;32.60;65.04
66102;HTU21D;52883;51.094;5.880;2022-07-04T06:48:01;32.54;64.27
66102;HTU21D;52883;51.094;5.880;2022-07-04T06:50:26;32.34;65.72
66102;HTU21D;52883;51.094;5.880;2022-07-04T06:52:52;32.64;63.95
66102;HTU21D;52883;51.094;5.880;2022-07-04T06:55:18;32.62;63.21
66102;HTU21D;52883;51.094;5.880;2022-07-04T06:57:43;32.75;61.51
66102;HTU21D;52883;51.094;5.880;2022-07-04T07:00:10;32.75;62.23
66102;HTU21D;52883;51.094;5.880;2022-07-04T07:02:36;33.14;61.61
66102;HTU21D;52883;51.094;5.880;2022-07-04T07:05:03;33.72;59.98
66102;HTU21D;52883;51.094;5.880;2022-07-04T07:07:29;33.91;55.39
66102;HTU21D;52883;51.094;5.880;2022-07-04T07:09:55;33.81;59.77
66102;HTU21D;52883;51.094;5.880;2022-07-04T07:12:22;33.89;59.13
66102;HTU21D;52883;51.094;5.880;2022-07-04T07:14:49;33.91;57.74
66102;HTU21D;52883;51.094;5.880;2022-07-04T07:17:16;34.10;59.58
66102;HTU21D;52883;51.094;5.880;2022-07-04T07:19:43;34.52;55.90
66102;HTU21D;52883;51.094;5.880;2022-07-04T07:22:09;34.38;56.75
66102;HTU21D;52883;51.094;5.880;2022-07-04T07:24:35;34.56;57.21
66102;HTU21D;52883;51.094;5.880;2022-07-04T07:27:01;35.01;54.51
66102;HTU21D;52883;51.094;5.880;2022-07-04T07:29:27;35.23;51.85
66102;HTU21D;52883;51.094;5.880;2022-07-04T07:31:52;34.83;51.92
66102;HTU21D;52883;51.094;5.880;2022-07-04T07:34:18;34.53;56.90
66102;HTU21D;52883;51.094;5.880;2022-07-04T07:36:43;34.62;54.81
66102;HTU21D;52883;51.094;5.880;2022-07-04T07:39:09;34.68;54.54
66102;HTU21D;52883;51.094;5.880;2022-07-04T07:41:35;34.77;55.04
66102;HTU21D;52883;51.094;5.880;2022-07-04T07:44:01;34.77;53.04
66102;HTU21D;52883;51.094;5.880;2022-07-04T07:46:26;34.88;52.78
66102;HTU21D;52883;51.094;5.880;2022-07-04T07:48:52;34.94;54.10
66102;HTU21D;52883;51.094;5.880;2022-07-04T07:51:17;34.94;53.75
66102;HTU21D;52883;51.094;5.880;2022-07-04T07:53:43;35.13;48.76
66102;HTU21D;52883;51.094;5.880;2022-07-04T07:56:09;35.16;53.01
66102;HTU21D;52883;51.094;5.880;2022-07-04T07:58:35;35.37;52.27
66102;HTU21D;52883;51.094;5.880;2022-07-04T08:01:01;35.47;51.69
66102;HTU21D;52883;51.094;5.880;2022-07-04T08:03:29;35.47;52.47
66102;HTU21D;52883;51.094;5.880;2022-07-04T08:06:14;35.40;50.90
66102;HTU21D;52883;51.094;5.880;2022-07-04T08:08:41;35.53;50.45
66102;HTU21D;52883;51.094;5.880;2022-07-04T08:11:08;35.77;50.56
66102;HTU21D;52883;51.094;5.880;2022-07-04T08:13:34;35.80;50.81
66102;HTU21D;52883;51.094;5.880;2022-07-04T08:16:00;36.04;50.27
66102;HTU21D;52883;51.094;5.880;2022-07-04T08:18:26;36.22;48.86
66102;HTU21D;52883;51.094;5.880;2022-07-04T08:20:51;36.17;48.00
66102;HTU21D;52883;51.094;5.880;2022-07-04T08:23:17;36.11;49.12
66102;HTU21D;52883;51.094;5.880;2022-07-04T08:25:43;35.81;48.28
66102;HTU21D;52883;51.094;5.880;2022-07-04T08:28:09;35.77;49.84
66102;HTU21D;52883;51.094;5.880;2022-07-04T08:30:34;35.62;50.10
66102;HTU21D;52883;51.094;5.880;2022-07-04T08:33:00;35.93;49.24
66102;HTU21D;52883;51.094;5.880;2022-07-04T08:35:26;36.14;45.33
66102;HTU21D;52883;51.094;5.880;2022-07-04T08:37:52;36.06;45.26
66102;HTU21D;52883;51.094;5.880;2022-07-04T08:40:25;36.13;48.44
66102;HTU21D;52883;51.094;5.880;2022-07-04T08:42:52;36.34;46.82
66102;HTU21D;52883;51.094;5.880;2022-07-04T08:45:26;36.51;45.97
66102;HTU21D;52883;51.094;5.880;2022-07-04T08:47:59;36.78;45.11
66102;HTU21D;52883;51.094;5.880;2022-07-04T08:50:49;36.59;45.83
66102;HTU21D;52883;51.094;5.880;2022-07-04T08:53:20;36.67;45.63
66102;HTU21D;52883;51.094;5.880;2022-07-04T08:55:48;36.82;38.16
66102;HTU21D;52883;51.094;5.880;2022-07-04T08:58:33;36.33;42.93
66102;HTU21D;52883;51.094;5.880;2022-07-04T09:01:08;36.19;43.97
66102;HTU21D;52883;51.094;5.880;2022-07-04T09:03:41;36.40;41.23
66102;HTU21D;52883;51.094;5.880;2022-07-04T09:06:08;36.36;43.92
66102;HTU21D;52883;51.094;5.880;2022-07-04T09:08:35;36.31;42.06
66102;HTU21D;52883;51.094;5.880;2022-07-04T09:11:02;36.46;42.03
66102;HTU21D;52883;51.094;5.880;2022-07-04T09:13:29;36.32;43.22
66102;HTU21D;52883;51.094;5.880;2022-07-04T09:15:55;36.37;44.24
66102;HTU21D;52883;51.094;5.880;2022-07-04T09:18:26;36.29;35.40
66102;HTU21D;52883;51.094;5.880;2022-07-04T09:21:00;36.41;44.29
66102;HTU21D;52883;51.094;5.880;2022-07-04T09:23:32;36.72;43.64
66102;HTU21D;52883;51.094;5.880;2022-07-04T09:26:18;36.86;43.93
66102;HTU21D;52883;51.094;5.880;2022-07-04T09:28:51;37.02;42.87
66102;HTU21D;52883;51.094;5.880;2022-07-04T09:31:19;37.16;40.06
66102;HTU21D;52883;51.094;5.880;2022-07-04T09:33:54;36.97;40.69
66102;HTU21D;52883;51.094;5.880;2022-07-04T09:36:29;36.84;41.56
66102;HTU21D;52883;51.094;5.880;2022-07-04T09:39:17;36.59;33.95
66102;HTU21D;52883;51.094;5.880;2022-07-04T09:44:19;36.02;42.52
66102;HTU21D;52883;51.094;5.880;2022-07-04T09:46:45;35.37;40.26
66102;HTU21D;52883;51.094;5.880;2022-07-04T09:49:11;34.65;46.54
66102;HTU21D;52883;51.094;5.880;2022-07-04T09:56:44;36.17;43.53
66102;HTU21D;52883;51.094;5.880;2022-07-04T09:59:11;36.70;43.13
66102;HTU21D;52883;51.094;5.880;2022-07-04T10:01:36;36.88;40.66
66102;HTU21D;52883;51.094;5.880;2022-07-04T10:04:02;37.08;40.90
66102;HTU21D;52883;51.094;5.880;2022-07-04T10:06:32;37.56;40.99
66102;HTU21D;52883;51.094;5.880;2022-07-04T10:09:12;37.73;38.33
66102;HTU21D;52883;51.094;5.880;2022-07-04T10:11:41;37.66;37.37
66102;HTU21D;52883;51.094;5.880;2022-07-04T10:14:09;37.18;39.33
66102;HTU21D;52883;51.094;5.880;2022-07-04T10:16:36;36.93;41.83
66102;HTU21D;52883;51.094;5.880;2022-07-04T10:19:02;36.95;40.10
66102;HTU21D;52883;51.094;5.880;2022-07-04T10:21:28;36.80;30.58
66102;HTU21D;52883;51.094;5.880;2022-07-04T10:23:54;36.89;39.80
66102;HTU21D;52883;51.094;5.880;2022-07-04T10:26:21;37.22;37.43
66102;HTU21D;52883;51.094;5.880;2022-07-04T10:28:50;37.75;37.41
66102;HTU21D;52883;51.094;5.880;2022-07-04T10:31:19;37.29;31.08
66102;HTU21D;52883;51.094;5.880;2022-07-04T10:33:46;37.02;30.95
66102;HTU21D;52883;51.094;5.880;2022-07-04T10:36:20;37.15;35.10
66102;HTU21D;52883;51.094;5.880;2022-07-04T10:38:48;37.54;35.08
66102;HTU21D;52883;51.094;5.880;2022-07-04T10:41:15;36.92;37.65
66102;HTU21D;52883;51.094;5.880;2022-07-04T10:44:03;36.92;39.48
66102;HTU21D;52883;51.094;5.880;2022-07-04T10:46:45;37.31;36.37
66102;HTU21D;52883;51.094;5.880;2022-07-04T10:51:44;38.00;36.63
66102;HTU21D;52883;51.094;5.880;2022-07-04T10:59:19;38.73;33.17
66102;HTU21D;52883;51.094;5.880;2022-07-04T11:02:00;38.85;36.13
66102;HTU21D;52883;51.094;5.880;2022-07-04T11:04:59;38.90;35.66
66102;HTU21D;52883;51.094;5.880;2022-07-04T11:10:19;38.00;35.32
66102;HTU21D;52883;51.094;5.880;2022-07-04T11:13:04;37.02;36.72
66102;HTU21D;52883;51.094;5.880;2022-07-04T11:18:08;36.99;36.99
66102;HTU21D;52883;51.094;5.880;2022-07-04T11:20:37;37.42;38.29
66102;HTU21D;52883;51.094;5.880;2022-07-04T11:23:11;37.75;37.91
66102;HTU21D;52883;51.094;5.880;2022-07-04T11:25:40;37.81;31.96
66102;HTU21D;52883;51.094;5.880;2022-07-04T11:28:20;37.61;33.59
66102;HTU21D;52883;51.094;5.880;2022-07-04T11:30:58;36.46;37.50
66102;HTU21D;52883;51.094;5.880;2022-07-04T11:33:33;35.53;40.63
66102;HTU21D;52883;51.094;5.880;2022-07-04T11:36:15;35.50;41.63
66102;HTU21D;52883;51.094;5.880;2022-07-04T11:38:56;36.13;36.47
66102;HTU21D;52883;51.094;5.880;2022-07-04T11:41:57;36.87;39.70
66102;HTU21D;52883;51.094;5.880;2022-07-04T11:44:40;37.88;38.14
66102;HTU21D;52883;51.094;5.880;2022-07-04T11:47:38;38.50;35.99
66102;HTU21D;52883;51.094;5.880;2022-07-04T11:50:08;38.95;34.34
66102;HTU21D;52883;51.094;5.880;2022-07-04T11:55:06;37.89;34.16
66102;HTU21D;52883;51.094;5.880;2022-07-04T11:57:39;36.54;36.59
66102;HTU21D;52883;51.094;5.880;2022-07-04T12:00:10;35.92;39.59
66102;HTU21D;52883;51.094;5.880;2022-07-04T12:02:37;36.29;38.76
66102;HTU21D;52883;51.094;5.880;2022-07-04T12:05:09;36.52;31.13
66102;HTU21D;52883;51.094;5.880;2022-07-04T12:07:38;36.56;36.54
66102;HTU21D;52883;51.094;5.880;2022-07-04T12:10:16;37.12;37.08
66102;HTU21D;52883;51.094;5.880;2022-07-04T12:15:22;38.45;33.02
66102;HTU21D;52883;51.094;5.880;2022-07-04T12:17:55;38.26;32.54
66102;HTU21D;52883;51.094;5.880;2022-07-04T12:20:22;37.58;32.89
66102;HTU21D;52883;51.094;5.880;2022-07-04T12:22:56;36.87;32.73
66102;HTU21D;52883;51.094;5.880;2022-07-04T12:28:02;37.52;34.02
66102;HTU21D;52883;51.094;5.880;2022-07-04T12:30:35;38.00;34.02
66102;HTU21D;52883;51.094;5.880;2022-07-04T12:33:05;37.76;32.57
66102;HTU21D;52883;51.094;5.880;2022-07-04T12:35:39;37.44;33.58
66102;HTU21D;52883;51.094;5.880;2022-07-04T12:40:35;36.47;34.38
66102;HTU21D;52883;51.094;5.880;2022-07-04T12:43:00;35.77;35.09
66102;HTU21D;52883;51.094;5.880;2022-07-04T12:45:44;35.47;34.21
66102;HTU21D;52883;51.094;5.880;2022-07-04T12:48:25;34.97;35.63
66102;HTU21D;52883;51.094;5.880;2022-07-04T12:50:51;34.61;38.17
66102;HTU21D;52883;51.094;5.880;2022-07-04T12:53:19;34.49;38.88
66102;HTU21D;52883;51.094;5.880;2022-07-04T12:55:46;34.32;38.62
66102;HTU21D;52883;51.094;5.880;2022-07-04T12:58:13;33.93;40.00
66102;HTU21D;52883;51.094;5.880;2022-07-04T13:00:40;33.67;40.63
66102;HTU21D;52883;51.094;5.880;2022-07-04T13:03:07;33.45;41.34
66102;HTU21D;52883;51.094;5.880;2022-07-04T13:05:35;33.33;42.10
66102;HTU21D;52883;51.094;5.880;2022-07-04T13:08:02;33.14;42.71
66102;HTU21D;52883;51.094;5.880;2022-07-04T13:10:29;33.00;42.60
66102;HTU21D;52883;51.094;5.880;2022-07-04T13:12:54;33.06;44.77
66102;HTU21D;52883;51.094;5.880;2022-07-04T13:15:20;33.73;41.96
66102;HTU21D;52883;51.094;5.880;2022-07-04T13:17:46;34.61;41.00
66102;HTU21D;52883;51.094;5.880;2022-07-04T13:20:11;35.10;38.75
66102;HTU21D;52883;51.094;5.880;2022-07-04T13:22:38;35.15;39.01
66102;HTU21D;52883;51.094;5.880;2022-07-04T13:25:03;34.91;35.72
66102;HTU21D;52883;51.094;5.880;2022-07-04T13:27:29;34.29;38.08
66102;HTU21D;52883;51.094;5.880;2022-07-04T13:29:55;34.20;37.95
66102;HTU21D;52883;51.094;5.880;2022-07-04T13:32:21;34.47;38.34
66102;HTU21D;52883;51.094;5.880;2022-07-04T13:34:46;34.50;38.26
66102;HTU21D;52883;51.094;5.880;2022-07-04T13:37:12;34.10;37.43
66102;HTU21D;52883;51.094;5.880;2022-07-04T13:39:40;33.60;41.18
66102;HTU21D;52883;51.094;5.880;2022-07-04T13:42:06;33.61;41.87
66102;HTU21D;52883;51.094;5.880;2022-07-04T13:44:32;33.80;42.32
66102;HTU21D;52883;51.094;5.880;2022-07-04T13:46:57;33.95;41.73
66102;HTU21D;52883;51.094;5.880;2022-07-04T13:49:24;34.29;43.10
66102;HTU21D;52883;51.094;5.880;2022-07-04T13:51:50;35.01;42.45
66102;HTU21D;52883;51.094;5.880;2022-07-04T13:54:16;35.73;36.10
66102;HTU21D;52883;51.094;5.880;2022-07-04T13:56:41;36.01;38.57
66102;HTU21D;52883;51.094;5.880;2022-07-04T13:59:07;35.95;33.80
66102;HTU21D;52883;51.094;5.880;2022-07-04T14:01:33;35.96;35.64
66102;HTU21D;52883;51.094;5.880;2022-07-04T14:03:59;35.95;33.17
66102;HTU21D;52883;51.094;5.880;2022-07-04T14:06:24;35.79;35.82
66102;HTU21D;52883;51.094;5.880;2022-07-04T14:08:50;35.78;36.38
66102;HTU21D;52883;51.094;5.880;2022-07-04T14:11:16;35.75;36.64
66102;HTU21D;52883;51.094;5.880;2022-07-04T14:13:42;35.65;36.11
66102;HTU21D;52883;51.094;5.880;2022-07-04T14:16:07;35.48;37.40
66102;HTU21D;52883;51.094;5.880;2022-07-04T14:18:33;35.34;36.80
66102;HTU21D;52883;51.094;5.880;2022-07-04T14:20:59;34.92;37.43
66102;HTU21D;52883;51.094;5.880;2022-07-04T14:23:25;34.38;39.04
66102;HTU21D;52883;51.094;5.880;2022-07-04T14:26:07;34.05;38.56
66102;HTU21D;52883;51.094;5.880;2022-07-04T14:28:34;33.79;39.39
66102;HTU21D;52883;51.094;5.880;2022-07-04T14:31:00;34.04;40.06
66102;HTU21D;52883;51.094;5.880;2022-07-04T14:33:26;34.56;38.59
66102;HTU21D;52883;51.094;5.880;2022-07-04T14:35:52;35.22;39.46
66102;HTU21D;52883;51.094;5.880;2022-07-04T14:38:18;35.57;39.94
66102;HTU21D;52883;51.094;5.880;2022-07-04T14:40:44;35.90;38.88
66102;HTU21D;52883;51.094;5.880;2022-07-04T14:43:12;35.85;38.48
66102;HTU21D;52883;51.094;5.880;2022-07-04T14:45:38;36.08;30.15
66102;HTU21D;52883;51.094;5.880;2022-07-04T14:48:04;36.22;35.36
66102;HTU21D;52883;51.094;5.880;2022-07-04T14:50:30;36.28;37.67
66102;HTU21D;52883;51.094;5.880;2022-07-04T14:52:56;36.07;36.32
66102;HTU21D;52883;51.094;5.880;2022-07-04T14:55:22;35.59;36.13
66102;HTU21D;52883;51.094;5.880;2022-07-04T14:57:47;34.94;36.27
66102;HTU21D;52883;51.094;5.880;2022-07-04T15:00:13;34.22;37.99
66102;HTU21D;52883;51.094;5.880;2022-07-04T15:02:39;33.53;33.15
66102;HTU21D;52883;51.094;5.880;2022-07-04T15:05:05;32.74;38.04
66102;HTU21D;52883;51.094;5.880;2022-07-04T15:07:30;32.33;41.47
66102;HTU21D;52883;51.094;5.880;2022-07-04T15:09:56;31.81;43.48
66102;HTU21D;52883;51.094;5.880;2022-07-04T15:12:22;31.33;43.51
66102;HTU21D;52883;51.094;5.880;2022-07-04T15:14:47;31.16;43.93
66102;HTU21D;52883;51.094;5.880;2022-07-04T15:17:13;31.02;44.08
66102;HTU21D;52883;51.094;5.880;2022-07-04T15:19:40;30.84;45.21
66102;HTU21D;52883;51.094;5.880;2022-07-04T15:22:25;30.46;47.38
66102;HTU21D;52883;51.094;5.880;2022-07-04T15:25:09;30.11;48.46
66102;HTU21D;52883;51.094;5.880;2022-07-04T15:27:35;29.76;48.44
66102;HTU21D;52883;51.094;5.880;2022-07-04T15:30:00;29.57;49.68
66102;HTU21D;52883;51.094;5.880;2022-07-04T15:32:26;29.36;49.89
66102;HTU21D;52883;51.094;5.880;2022-07-04T15:34:52;29.17;50.92
66102;HTU21D;52883;51.094;5.880;2022-07-04T15:37:17;29.01;52.43
66102;HTU21D;52883;51.094;5.880;2022-07-04T15:39:43;28.83;53.36
66102;HTU21D;52883;51.094;5.880;2022-07-04T15:42:08;28.70;53.88
66102;HTU21D;52883;51.094;5.880;2022-07-04T15:44:34;28.67;53.97